| time (UTC) | temp F | wind direction | speed MPH | gust MPH | rain 1hr in | rain 24hr in | rain mn in | humidity % | barometer mb |
| 20260510233022 | 65 | 0.0 | 4.0 | 0.00 | 0.00 | 0.00 | 62 | 1019.5 | |
| 20260510230016 | 65 | 0.0 | 3.0 | 0.00 | 0.00 | 0.00 | 64 | 1019.7 | |
| 20260510223016 | 65 | 0.0 | 2.0 | 0.00 | 0.00 | 0.00 | 63 | 1019.7 | |
| 20260510220016 | 66 | 0.0 | 3.0 | 0.00 | 0.00 | 0.00 | 63 | 1019.4 | |
| 20260510213016 | 64 | 270 | 1.0 | 5.0 | 0.00 | 0.00 | 0.00 | 64 | 1019.3 |
| 20260510210016 | 62 | 270 | 1.0 | 5.0 | 0.00 | 0.00 | 0.00 | 71 | 1019.4 |
| 20260510203016 | 60 | 0.0 | 4.0 | 0.00 | 0.00 | 0.00 | 73 | 1019.3 | |
| 20260510200015 | 62 | 0.0 | 4.0 | 0.00 | 0.00 | 0.00 | 70 | 1019.1 | |
| 20260510193015 | 61 | 0.0 | 2.0 | 0.00 | 0.00 | 0.00 | 74 | 1018.7 | |
| 20260510190015 | 61 | 0.0 | 1.0 | 0.00 | 0.00 | 0.00 | 76 | 1018.7 | |
| 20260510183015 | 60 | 0.0 | 2.0 | 0.00 | 0.00 | 0.00 | 76 | 1018.5 | |
| 20260510180015 | 60 | 0.0 | 1.0 | 0.00 | 0.00 | 0.00 | 77 | 1018.0 | |
| 20260510173017 | 59 | 0.0 | 2.0 | 0.00 | 0.00 | 0.00 | 76 | 1018.3 | |
| 20260510170017 | 57 | 0.0 | 2.0 | 0.00 | 0.00 | 0.00 | 78 | 1018.3 | |
| 20260510163017 | 58 | 0.0 | 2.0 | 0.00 | 0.00 | 0.00 | 77 | 1017.7 | |
| 20260510160017 | 56 | 0.0 | 1.0 | 0.00 | 0.00 | 0.00 | 79 | 1017.7 | |
| 20260510153017 | 56 | 0.0 | 1.0 | 0.00 | 0.00 | 0.00 | 84 | 1017.3 | |
| 20260510150017 | 54 | 0.0 | 1.0 | 0.00 | 0.00 | 0.00 | 86 | 1017.5 | |
| 20260510143017 | 53 | 0.0 | 1.0 | 0.00 | 0.00 | 0.00 | 88 | 1017.6 | |
| 20260510140017 | 53 | 0.0 | 3.0 | 0.00 | 0.00 | 0.00 | 89 | 1016.6 | |
| 20260510133017 | 52 | 0.0 | 1.0 | 0.00 | 0.00 | 0.00 | 89 | 1016.9 | |
| 20260510130017 | 52 | 0.0 | 1.0 | 0.00 | 0.00 | 0.00 | 88 | 1017.2 | |
| 20260510123016 | 52 | 0.0 | 1.0 | 0.00 | 0.00 | 0.00 | 86 | 1017.3 | |
| 20260510120016 | 53 | 0.0 | 2.0 | 0.00 | 0.00 | 0.00 | 86 | 1017.0 | |
| 20260510113016 | 52 | 0.0 | 1.0 | 0.00 | 0.00 | 0.00 | 86 | 1017.2 | |
| 20260510110016 | 52 | 0.0 | 0.0 | 0.00 | 0.00 | 0.00 | 88 | 1016.7 | |
| 20260510103016 | 52 | 0.0 | 0.0 | 0.00 | 0.00 | 0.00 | 87 | 1016.6 | |
| 20260510100016 | 52 | 0.0 | 0.0 | 0.00 | 0.00 | 0.00 | 88 | 1016.3 | |
| 20260510093016 | 52 | 0.0 | 0.0 | 0.00 | 0.00 | 0.00 | 87 | 1015.9 | |
| 20260510090016 | 53 | 0.0 | 0.0 | 0.00 | 0.00 | 0.00 | 87 | 1015.8 | |
| 20260510083016 | 53 | 0.0 | 0.0 | 0.00 | 0.00 | 0.00 | 86 | 1015.8 | |
| 20260510080016 | 53 | 0.0 | 0.0 | 0.00 | 0.00 | 0.00 | 84 | 1015.6 | |
| 20260510073016 | 54 | 0.0 | 0.0 | 0.00 | 0.00 | 0.00 | 83 | 1015.8 | |
| 20260510070015 | 55 | 0.0 | 0.0 | 0.00 | 0.00 | 0.00 | 81 | 1015.7 | |
| 20260510063017 | 56 | 0.0 | 0.0 | 0.00 | 0.00 | 0.00 | 80 | 1015.8 | |
| 20260510060017 | 57 | 0.0 | 0.0 | 0.00 | 0.00 | 0.00 | 79 | 1015.8 | |
| 20260510053017 | 58 | 0.0 | 0.0 | 0.00 | 0.00 | 0.00 | 78 | 1015.6 | |
| 20260510050017 | 58 | 0.0 | 0.0 | 0.00 | 0.00 | 0.00 | 77 | 1015.7 | |
| 20260510043016 | 59 | 0.0 | 0.0 | 0.00 | 0.00 | 0.00 | 75 | 1015.7 | |
| 20260510040016 | 61 | 0.0 | 0.0 | 0.00 | 0.00 | 0.00 | 71 | 1015.5 | |
| 20260510033016 | 63 | 0.0 | 0.0 | 0.00 | 0.00 | 0.00 | 68 | 1015.5 | |
| 20260510030017 | 64 | 0.0 | 1.0 | 0.00 | 0.00 | 0.00 | 66 | 1015.6 | |
| 20260510023016 | 66 | 0.0 | 2.0 | 0.00 | 0.00 | 0.00 | 62 | 1015.8 | |
| 20260510020016 | 67 | 0.0 | 3.0 | 0.00 | 0.00 | 0.00 | 57 | 1016.0 | |
| 20260510013016 | 69 | 0.0 | 2.0 | 0.00 | 0.00 | 0.00 | 54 | 1016.6 | |
| 20260510010016 | 68 | 0.0 | 2.0 | 0.00 | 0.00 | 0.00 | 56 | 1016.8 | |
| 20260510003016 | 68 | 0.0 | 5.0 | 0.00 | 0.00 | 0.00 | 58 | 1017.1 | |
| 20260510000016 | 69 | 0.0 | 2.0 | 0.00 | 0.00 | 0.00 | 53 | 1017.4 |